createdAt,value
2018-12-22T00:02:21.106Z,52.86
2018-12-22T00:04:48.773Z,52.66
2018-12-22T00:07:16.362Z,53.37
2018-12-22T00:09:43.977Z,53.41
2018-12-22T00:12:11.549Z,53.32
2018-12-22T00:14:39.310Z,52.77
2018-12-22T00:17:06.972Z,53.01
2018-12-22T00:19:34.531Z,53.56
2018-12-22T00:22:02.252Z,54.07
2018-12-22T00:24:29.842Z,53.57
2018-12-22T00:26:57.611Z,53.60
2018-12-22T00:29:25.181Z,53.54
2018-12-22T00:31:52.732Z,53.36
2018-12-22T00:34:21.458Z,53.78
2018-12-22T00:36:48.982Z,53.02
2018-12-22T00:39:16.544Z,52.93
2018-12-22T00:41:44.136Z,52.80
2018-12-22T00:44:11.838Z,53.65
2018-12-22T00:46:39.534Z,53.51
2018-12-22T00:49:07.088Z,53.53
2018-12-22T00:51:34.638Z,53.26
2018-12-22T00:54:02.310Z,53.20
2018-12-22T00:56:29.890Z,53.18
2018-12-22T00:58:57.502Z,53.31
2018-12-22T01:01:25.212Z,53.03
2018-12-22T01:03:53.059Z,53.52
2018-12-22T01:06:20.460Z,53.36
2018-12-22T01:08:48.065Z,53.27
2018-12-22T01:11:15.739Z,53.54
2018-12-22T01:13:43.291Z,53.77
2018-12-22T01:16:10.849Z,53.43
2018-12-22T01:18:38.533Z,53.41
2018-12-22T01:21:06.381Z,53.24
2018-12-22T01:23:34.045Z,53.25
2018-12-22T01:26:01.751Z,53.32
2018-12-22T01:28:29.367Z,53.90
2018-12-22T01:30:57.135Z,53.44
2018-12-22T01:33:24.693Z,53.58
2018-12-22T01:35:52.255Z,54.17
2018-12-22T01:38:20.021Z,54.18
2018-12-22T01:40:47.489Z,53.94
2018-12-22T01:43:15.238Z,53.94
2018-12-22T01:45:42.902Z,53.93
2018-12-22T01:48:11.495Z,53.74
2018-12-22T01:50:39.052Z,53.92
2018-12-22T01:53:06.606Z,54.05
2018-12-22T01:55:34.348Z,54.22
2018-12-22T01:58:01.930Z,54.07
2018-12-22T02:00:29.452Z,54.06
2018-12-22T02:02:57.151Z,54.63
2018-12-22T02:05:24.795Z,54.71
2018-12-22T02:07:52.453Z,53.95
2018-12-22T02:10:20.094Z,54.00
2018-12-22T02:12:47.812Z,54.47
2018-12-22T02:15:15.461Z,54.15
2018-12-22T02:17:43.210Z,54.70
2018-12-22T02:20:10.891Z,54.18
2018-12-22T02:22:38.430Z,54.50
2018-12-22T02:25:06.028Z,54.31
2018-12-22T02:27:33.764Z,54.77
2018-12-22T02:30:01.413Z,54.53
2018-12-22T02:32:28.871Z,54.67
2018-12-22T02:34:56.571Z,54.34
2018-12-22T02:37:24.404Z,55.16
2018-12-22T02:39:52.063Z,54.43
2018-12-22T02:42:19.645Z,54.87
2018-12-22T02:44:47.197Z,54.75
2018-12-22T02:47:14.822Z,55.05
2018-12-22T02:49:42.465Z,54.88
2018-12-22T02:52:10.192Z,54.97
2018-12-22T02:54:37.750Z,54.81
2018-12-22T02:57:05.288Z,55.12
2018-12-22T02:59:32.965Z,54.80
2018-12-22T03:02:00.586Z,54.96
2018-12-22T03:04:28.111Z,54.65
2018-12-22T03:06:55.732Z,54.57
2018-12-22T03:09:23.285Z,55.08
2018-12-22T03:11:50.927Z,54.70
2018-12-22T03:14:18.510Z,54.80
2018-12-22T03:16:46.133Z,54.89
2018-12-22T03:19:13.960Z,55.20
2018-12-22T03:21:41.622Z,55.43
2018-12-22T03:24:09.145Z,55.18
2018-12-22T03:26:36.828Z,55.24
2018-12-22T03:29:04.504Z,55.37
2018-12-22T03:31:32.148Z,55.14
2018-12-22T03:33:59.693Z,55.00
2018-12-22T03:36:27.344Z,55.11
2018-12-22T03:38:54.950Z,55.34
2018-12-22T03:41:22.566Z,55.48
2018-12-22T03:43:50.156Z,55.37
2018-12-22T03:46:17.932Z,55.74
2018-12-22T03:48:45.351Z,55.11
2018-12-22T03:51:13.013Z,55.31
2018-12-22T03:53:40.668Z,55.36
2018-12-22T03:56:08.264Z,55.24
2018-12-22T03:58:35.896Z,55.17
2018-12-22T04:01:03.561Z,55.64
2018-12-22T04:03:31.009Z,55.71
2018-12-22T19:23:09.956Z,61.67
2018-12-22T19:25:37.618Z,66.17
2018-12-22T19:28:05.562Z,68.06
2018-12-22T19:30:33.008Z,68.89
2018-12-22T19:33:00.927Z,68.63
2018-12-22T19:35:28.441Z,69.48
2018-12-22T19:37:56.431Z,70.15
2018-12-22T19:40:24.011Z,70.48
2018-12-22T19:42:52.880Z,71.46
2018-12-22T19:45:20.331Z,71.34
2018-12-22T19:47:48.582Z,71.57
2018-12-22T19:50:16.610Z,71.27
2018-12-22T19:52:44.871Z,71.19
2018-12-22T19:55:12.296Z,70.95
2018-12-22T19:57:39.836Z,71.33
2018-12-22T20:00:08.588Z,71.37
2018-12-22T20:02:36.289Z,71.56
2018-12-22T20:05:05.043Z,71.02
2018-12-22T20:07:32.586Z,71.31
2018-12-22T20:10:00.649Z,71.83
2018-12-22T20:12:28.153Z,71.23
2018-12-22T20:14:56.220Z,71.63
2018-12-22T20:17:23.741Z,71.08
2018-12-22T20:19:51.825Z,70.88
2018-12-22T20:22:19.369Z,70.53
2018-12-22T20:24:47.488Z,70.56
2018-12-22T20:27:15.336Z,70.86
2018-12-22T20:29:42.837Z,70.83
2018-12-22T20:32:10.958Z,70.45
2018-12-22T20:34:38.503Z,70.30
2018-12-22T20:37:06.503Z,70.17
2018-12-22T20:39:34.025Z,69.76
2018-12-22T20:42:02.128Z,69.95
2018-12-22T20:44:29.679Z,70.18
2018-12-22T20:46:57.801Z,69.96
2018-12-22T20:49:26.479Z,70.42
2018-12-22T20:51:54.960Z,70.58
2018-12-22T20:54:23.447Z,70.46
2018-12-22T20:56:52.148Z,70.18
2018-12-22T20:59:19.710Z,70.51
2018-12-22T21:01:47.940Z,70.94
2018-12-22T21:04:19.828Z,70.46
2018-12-22T21:06:45.634Z,70.86
2018-12-22T21:09:13.655Z,70.45
2018-12-22T21:11:41.197Z,71.05
2018-12-22T21:14:09.283Z,71.00
2018-12-22T21:16:36.845Z,71.59
2018-12-22T21:19:04.829Z,71.00
2018-12-22T21:21:32.332Z,71.14
2018-12-22T21:24:00.512Z,70.83
2018-12-22T21:26:28.673Z,71.51
2018-12-22T21:28:56.805Z,71.59
2018-12-22T21:31:24.560Z,72.12
2018-12-22T21:33:52.628Z,72.13
2018-12-22T21:36:22.118Z,72.18
2018-12-22T21:38:50.476Z,72.13
2018-12-22T21:41:18.218Z,72.34
2018-12-22T21:43:45.850Z,72.73
2018-12-22T21:46:14.015Z,72.16
2018-12-22T21:48:41.748Z,72.81
2018-12-22T21:51:09.401Z,72.19
2018-12-22T21:53:37.554Z,72.53
2018-12-22T21:56:05.955Z,73.05
2018-12-22T21:58:33.452Z,72.60
2018-12-22T22:01:01.662Z,72.19
2018-12-22T22:03:29.493Z,72.35
2018-12-22T22:05:57.692Z,71.99
2018-12-22T22:08:25.582Z,71.39
2018-12-22T22:10:53.707Z,71.74
2018-12-22T22:13:22.248Z,71.56
2018-12-22T22:15:49.915Z,72.21
2018-12-22T22:18:18.012Z,71.67
2018-12-22T22:20:45.693Z,71.44
2018-12-22T22:23:18.808Z,71.30
2018-12-22T22:25:43.222Z,71.53
2018-12-22T22:28:11.023Z,71.52
2018-12-22T22:30:38.752Z,71.52
2018-12-22T22:33:06.266Z,71.59
2018-12-22T22:35:35.511Z,71.47
2018-12-22T22:38:03.479Z,71.65
2018-12-22T22:40:31.412Z,71.10
2018-12-22T22:42:58.965Z,71.57
2018-12-22T22:45:27.659Z,71.05
2018-12-22T22:47:55.163Z,70.70
2018-12-22T22:50:23.226Z,70.27
2018-12-22T22:52:50.688Z,70.81
2018-12-22T22:55:18.728Z,70.13
2018-12-22T22:57:46.412Z,70.07
2018-12-22T23:00:18.071Z,69.96
2018-12-22T23:02:45.782Z,69.83
2018-12-22T23:05:13.351Z,70.20
2018-12-22T23:07:41.003Z,69.85
2018-12-22T23:10:09.283Z,69.52
2018-12-22T23:12:36.824Z,70.15
2018-12-22T23:15:05.376Z,69.59
2018-12-22T23:17:33.013Z,70.38
2018-12-22T23:20:00.630Z,69.60
2018-12-22T23:22:28.165Z,70.05
2018-12-22T23:24:56.275Z,70.18
2018-12-22T23:27:23.906Z,69.97
2018-12-22T23:29:51.422Z,70.38
2018-12-22T23:32:18.969Z,70.28
2018-12-22T23:34:46.419Z,70.59
2018-12-22T23:37:13.885Z,69.84
2018-12-22T23:39:41.425Z,70.49
2018-12-22T23:42:09.141Z,70.24
2018-12-22T23:44:36.645Z,70.23
2018-12-22T23:47:04.246Z,70.64
2018-12-22T23:49:31.783Z,70.73
2018-12-22T23:51:59.425Z,70.69
2018-12-22T23:54:27.146Z,70.34
2018-12-22T23:56:54.534Z,70.45
2018-12-22T23:59:22.210Z,70.49
